Aviation Digital Data Service (ADDS)

Output produced by METARs form (0732 UTC 21 September 2018)
found at http://aviationweather.gov/metar/data/
 
KTYR 210653Z AUTO 17005KT 10SM BKN110 24/22 A2996 RMK AO2 SLP137 T02440217
KTYR 210543Z 2106/2206 17007KT P6SM SCT050 BKN150 BKN250 
     FM211200 18006KT P6SM SCT015 SCT150 SCT250 
     TEMPO 2112/2116 BKN015 
     FM211600 17008KT P6SM VCTS BKN035CB BKN150 BKN250 
     FM211800 17008KT P6SM VCTS BKN040CB BKN150 BKN250 
     FM220000 VRB06KT 5SM -TSRA BR OVC040CB